createdAt,value
2022-11-28T00:00:55.713Z,5.76
2022-11-28T00:03:22.340Z,5.72
2022-11-28T00:05:49.549Z,5.70
2022-11-28T00:08:15.968Z,5.70
2022-11-28T00:10:42.380Z,5.70
2022-11-28T00:13:08.784Z,5.72
2022-11-28T00:15:35.274Z,5.77
2022-11-28T00:18:02.816Z,5.73
2022-11-28T00:20:29.253Z,5.75
2022-11-28T00:22:56.002Z,5.75
2022-11-28T00:25:22.618Z,5.75
2022-11-28T00:27:49.211Z,5.69
2022-11-28T00:30:15.636Z,5.67
2022-11-28T00:32:42.387Z,5.67
2022-11-28T00:35:09.987Z,5.73
2022-11-28T00:37:36.363Z,5.77
2022-11-28T00:40:02.771Z,5.78
2022-11-28T00:42:29.208Z,5.82
2022-11-28T00:44:56.347Z,5.81
2022-11-28T00:47:22.930Z,5.82
2022-11-28T00:49:49.528Z,5.81
2022-11-28T00:52:15.940Z,5.80
2022-11-28T00:54:42.512Z,5.78
2022-11-28T00:57:09.056Z,5.78
2022-11-28T00:59:35.883Z,5.77
2022-11-28T01:02:02.359Z,5.80
2022-11-28T01:04:28.780Z,5.75
2022-11-28T01:06:55.217Z,5.74
2022-11-28T01:09:21.643Z,5.74
2022-11-28T01:11:49.856Z,5.70
2022-11-28T01:14:17.441Z,5.70
2022-11-28T01:16:44.095Z,5.68
2022-11-28T01:19:11.612Z,5.68
2022-11-28T01:21:38.214Z,5.67
2022-11-28T01:24:04.770Z,5.64
2022-11-28T01:26:31.159Z,5.62
2022-11-28T01:28:57.619Z,5.56
2022-11-28T01:31:24.176Z,5.54
2022-11-28T01:33:50.637Z,5.56
2022-11-28T01:36:17.047Z,5.53
2022-11-28T01:38:43.498Z,5.54
2022-11-28T01:41:09.919Z,5.56
2022-11-28T01:43:36.317Z,5.55
2022-11-28T01:46:02.739Z,5.59
2022-11-28T01:48:29.159Z,5.60
2022-11-28T01:50:55.607Z,5.61
2022-11-28T01:53:23.153Z,5.61
2022-11-28T01:55:49.836Z,5.63
2022-11-28T01:58:17.343Z,5.60
2022-11-28T02:00:43.933Z,5.60
2022-11-28T02:03:10.387Z,5.57
2022-11-28T02:05:37.195Z,5.60
2022-11-28T02:08:04.711Z,5.57
2022-11-28T02:10:32.378Z,5.57
2022-11-28T02:12:58.875Z,5.58
2022-11-28T02:15:25.598Z,5.59
2022-11-28T02:17:52.198Z,5.60
2022-11-28T02:20:18.782Z,5.60
2022-11-28T02:22:45.206Z,5.63
2022-11-28T02:25:11.975Z,5.61
2022-11-28T02:27:39.555Z,5.60
2022-11-28T02:30:06.142Z,5.63
2022-11-28T02:32:32.727Z,5.65
2022-11-28T02:35:00.335Z,5.64
2022-11-28T02:37:26.933Z,5.67
2022-11-28T02:39:53.541Z,5.61
2022-11-28T02:42:19.975Z,5.61
2022-11-28T02:44:46.399Z,5.70
2022-11-28T02:47:12.841Z,5.64
2022-11-28T02:49:39.328Z,5.65
2022-11-28T02:52:05.748Z,5.61
2022-11-28T02:54:32.177Z,5.68
2022-11-28T02:56:58.625Z,5.61
2022-11-28T02:59:25.038Z,5.58
2022-11-28T03:01:51.457Z,5.53
2022-11-28T03:04:17.892Z,5.50
2022-11-28T03:06:45.031Z,5.51
2022-11-28T03:09:11.453Z,5.49
2022-11-28T03:11:37.833Z,5.52
2022-11-28T03:14:04.209Z,5.48
2022-11-28T03:16:30.893Z,5.50
2022-11-28T03:18:57.371Z,5.54
2022-11-28T03:21:23.826Z,5.56
2022-11-28T03:23:50.233Z,5.63
2022-11-28T03:26:16.702Z,5.64
2022-11-28T03:28:43.873Z,5.67
2022-11-28T03:31:10.400Z,5.64
2022-11-28T03:33:36.839Z,5.66
2022-11-28T03:36:03.274Z,5.71
2022-11-28T03:38:29.691Z,5.76
2022-11-28T03:40:56.121Z,5.77
2022-11-28T03:43:22.601Z,5.84
2022-11-28T03:45:49.039Z,5.85
2022-11-28T03:48:16.045Z,5.89
2022-11-28T03:50:42.449Z,5.91
2022-11-28T03:53:09.246Z,6.05
2022-11-28T03:55:37.888Z,5.98
2022-11-28T03:58:05.427Z,5.95
2022-11-28T04:00:31.913Z,5.96
2022-11-28T04:02:58.651Z,5.98
2022-11-28T04:05:26.219Z,6.03
2022-11-28T04:07:52.930Z,6.04
2022-11-28T04:10:19.373Z,6.05
2022-11-28T04:12:46.123Z,6.07
2022-11-28T04:15:13.626Z,6.13
2022-11-28T04:17:40.230Z,6.12
2022-11-28T04:20:06.652Z,6.09
2022-11-28T04:22:33.404Z,6.11
2022-11-28T04:25:00.019Z,6.13
2022-11-28T04:27:26.614Z,6.15
2022-11-28T04:29:53.057Z,6.17
2022-11-28T04:32:20.782Z,6.15
2022-11-28T04:34:47.383Z,6.28
2022-11-28T04:37:14.003Z,6.23
2022-11-28T04:39:40.577Z,6.29
2022-11-28T04:42:07.367Z,6.25
2022-11-28T04:44:34.748Z,6.18
2022-11-28T04:47:01.196Z,6.21
2022-11-28T04:49:27.704Z,6.29
2022-11-28T04:51:54.176Z,6.29
2022-11-28T04:54:20.568Z,6.31
2022-11-28T04:56:46.976Z,6.33
2022-11-28T04:59:13.421Z,6.40
2022-11-28T05:01:39.946Z,6.40
2022-11-28T05:04:06.475Z,6.42
2022-11-28T05:06:32.909Z,6.46
2022-11-28T05:08:59.337Z,6.48
2022-11-28T05:11:26.248Z,6.45
2022-11-28T05:13:53.850Z,6.48
2022-11-28T05:16:20.268Z,6.48
2022-11-28T05:18:46.675Z,6.49
2022-11-28T05:21:13.122Z,6.50
2022-11-28T05:23:40.215Z,6.50
2022-11-28T05:26:06.643Z,6.50
2022-11-28T05:28:33.387Z,6.52
2022-11-28T05:30:59.814Z,6.50
2022-11-28T05:33:26.223Z,6.53
2022-11-28T05:35:52.666Z,6.51
2022-11-28T05:38:19.120Z,6.50
2022-11-28T05:40:45.553Z,6.50
2022-11-28T05:43:11.961Z,6.58
2022-11-28T05:45:38.402Z,6.51
2022-11-28T05:48:04.846Z,6.50
2022-11-28T05:50:34.635Z,6.51
2022-11-28T05:53:03.594Z,6.47
2022-11-28T05:55:29.986Z,6.47
2022-11-28T05:57:56.381Z,6.45
2022-11-28T06:00:23.070Z,6.45
2022-11-28T06:02:49.660Z,6.50
2022-11-28T06:05:40.892Z,6.51
2022-11-28T06:08:03.027Z,6.50
2022-11-28T06:10:30.537Z,6.52
2022-11-28T06:12:56.976Z,6.56
2022-11-28T06:15:23.718Z,6.55
2022-11-28T06:17:50.300Z,6.56
2022-11-28T06:20:17.893Z,6.58
2022-11-28T06:22:45.513Z,6.61
2022-11-28T06:25:12.111Z,6.58
2022-11-28T06:27:38.707Z,6.61
2022-11-28T06:30:05.338Z,6.55
2022-11-28T06:32:31.933Z,6.57
2022-11-28T06:34:59.488Z,6.58
2022-11-28T06:37:26.069Z,6.60
2022-11-28T06:39:52.665Z,6.60
2022-11-28T06:42:20.258Z,6.62
2022-11-28T06:44:46.951Z,6.59
2022-11-28T06:47:14.448Z,6.59
2022-11-28T06:49:41.316Z,6.62
2022-11-28T06:52:11.648Z,6.62
2022-11-28T06:54:38.238Z,6.55
2022-11-28T06:57:04.908Z,6.56
2022-11-28T06:59:31.323Z,6.57
2022-11-28T07:01:59.295Z,6.56
2022-11-28T07:04:28.366Z,6.61
2022-11-28T07:06:55.344Z,6.62
2022-11-28T07:09:22.889Z,6.63
2022-11-28T07:11:49.348Z,6.55
2022-11-28T07:14:15.767Z,6.54
2022-11-28T07:16:42.210Z,6.55
2022-11-28T07:19:08.685Z,6.60
2022-11-28T07:21:35.876Z,6.59
2022-11-28T07:24:03.472Z,6.62
2022-11-28T07:26:30.131Z,6.65
2022-11-28T07:28:56.601Z,6.73
2022-11-28T07:31:23.268Z,6.74
2022-11-28T07:33:49.727Z,6.69
2022-11-28T07:36:17.404Z,6.68
2022-11-28T07:38:44.075Z,6.72
2022-11-28T07:41:10.628Z,6.73
2022-11-28T07:43:37.232Z,6.77
2022-11-28T07:46:03.894Z,6.82
2022-11-28T07:48:30.381Z,6.83
2022-11-28T07:50:57.058Z,6.85
2022-11-28T07:53:23.559Z,6.89
2022-11-28T07:55:50.253Z,6.93
2022-11-28T07:58:16.858Z,6.96
2022-11-28T08:00:43.427Z,7.01
2022-11-28T08:03:11.052Z,7.05
2022-11-28T08:05:37.638Z,7.08
2022-11-28T08:08:04.145Z,7.12
2022-11-28T08:10:30.956Z,7.15
2022-11-28T08:12:57.556Z,7.15
2022-11-28T08:15:24.221Z,7.17
2022-11-28T08:17:51.808Z,7.18
2022-11-28T08:20:18.478Z,7.20
2022-11-28T08:22:46.050Z,7.22
2022-11-28T08:25:12.639Z,7.26
2022-11-28T08:27:39.256Z,7.31
2022-11-28T08:30:05.826Z,7.34
2022-11-28T08:32:34.905Z,7.38
2022-11-28T08:35:02.005Z,7.41
2022-11-28T08:37:29.608Z,7.46
2022-11-28T08:39:56.462Z,7.52
2022-11-28T08:42:22.926Z,7.58
2022-11-28T08:44:49.359Z,7.65
2022-11-28T08:47:15.818Z,7.73
2022-11-28T08:49:43.101Z,7.80
2022-11-28T08:52:10.515Z,7.87
2022-11-28T08:54:38.121Z,7.94
2022-11-28T08:57:04.519Z,8.00
2022-11-28T08:59:31.292Z,8.01
2022-11-28T09:01:57.893Z,8.03
2022-11-28T09:04:24.505Z,8.02
2022-11-28T09:06:50.979Z,8.07
2022-11-28T09:09:17.392Z,8.06
2022-11-28T09:11:43.787Z,8.08
2022-11-28T09:14:10.222Z,8.14
2022-11-28T09:16:36.692Z,8.17
2022-11-28T09:19:03.131Z,8.22
2022-11-28T09:21:29.622Z,8.27
2022-11-28T09:23:56.066Z,8.28
2022-11-28T09:26:22.505Z,8.31
2022-11-28T09:28:48.919Z,8.32
2022-11-28T09:31:15.484Z,8.36
2022-11-28T09:33:41.949Z,8.34
2022-11-28T09:36:08.361Z,8.36
2022-11-28T09:38:34.794Z,8.39
2022-11-28T09:41:01.212Z,8.44
2022-11-28T09:43:27.654Z,8.48
2022-11-28T09:45:54.122Z,8.41
2022-11-28T09:48:20.609Z,8.40
2022-11-28T09:50:47.036Z,8.42
2022-11-28T09:53:13.466Z,8.41
2022-11-28T09:55:39.879Z,8.41
2022-11-28T09:58:06.571Z,8.40
2022-11-28T10:00:33.000Z,8.43
2022-11-28T10:02:59.643Z,8.44
2022-11-28T10:05:27.218Z,8.46
2022-11-28T10:07:55.297Z,8.47
2022-11-28T10:10:22.431Z,8.51
2022-11-28T10:12:48.889Z,8.54
2022-11-28T10:15:15.310Z,8.59
2022-11-28T10:17:41.735Z,8.66
2022-11-28T10:20:08.855Z,8.69
2022-11-28T10:22:36.434Z,8.76
2022-11-28T10:25:02.865Z,8.85
2022-11-28T10:27:29.260Z,8.90
2022-11-28T10:29:55.687Z,9.00
2022-11-28T10:32:22.086Z,9.09
2022-11-28T10:34:48.493Z,9.17
2022-11-28T10:37:14.886Z,9.25
2022-11-28T10:39:41.648Z,9.33
2022-11-28T10:42:08.255Z,9.41
2022-11-28T10:44:34.835Z,9.46
2022-11-28T10:47:01.223Z,9.50
2022-11-28T10:49:27.628Z,9.53
2022-11-28T10:51:54.171Z,9.57
2022-11-28T10:54:20.640Z,9.58
2022-11-28T10:56:47.051Z,9.65
2022-11-28T10:59:14.313Z,9.70
2022-11-28T11:01:42.819Z,9.79
2022-11-28T11:04:11.576Z,9.81
2022-11-28T11:06:47.586Z,9.86
2022-11-28T11:09:20.365Z,9.91
2022-11-28T11:11:46.796Z,9.94
2022-11-28T11:14:13.239Z,9.92
2022-11-28T11:16:39.768Z,9.94
2022-11-28T11:19:06.277Z,10.00
2022-11-28T11:21:32.710Z,10.04
2022-11-28T11:23:59.146Z,10.12
2022-11-28T11:26:25.589Z,10.15
2022-11-28T11:28:52.045Z,10.22
2022-11-28T11:31:18.595Z,10.19
2022-11-28T11:33:45.092Z,10.17
2022-11-28T11:36:11.502Z,10.18
2022-11-28T11:38:38.369Z,10.12
2022-11-28T11:41:04.809Z,10.08
2022-11-28T11:43:31.220Z,10.00
2022-11-28T11:45:57.634Z,9.98
2022-11-28T11:48:24.086Z,9.99
2022-11-28T11:50:50.517Z,9.97
2022-11-28T11:53:16.914Z,10.03
2022-11-28T11:55:43.324Z,9.97
2022-11-28T11:58:09.696Z,10.00
2022-11-28T12:00:36.146Z,9.97
2022-11-28T12:03:02.760Z,9.96
2022-11-28T12:05:29.428Z,9.96
2022-11-28T12:08:01.579Z,10.01
2022-11-28T12:10:28.029Z,10.02
2022-11-28T12:12:54.459Z,10.05
2022-11-28T12:15:20.874Z,10.16
2022-11-28T12:17:50.679Z,10.15
2022-11-28T12:20:19.060Z,10.21
2022-11-28T12:22:45.498Z,10.29
2022-11-28T12:25:11.910Z,10.29
2022-11-28T12:27:38.347Z,10.39
2022-11-28T12:30:04.787Z,10.44
2022-11-28T12:32:31.226Z,10.55
2022-11-28T12:34:57.683Z,10.55
2022-11-28T12:37:29.489Z,10.58
2022-11-28T12:40:03.715Z,10.65
2022-11-28T12:42:30.115Z,10.62
2022-11-28T12:44:56.544Z,10.67
2022-11-28T12:47:22.978Z,10.73
2022-11-28T12:49:49.402Z,10.71
2022-11-28T12:52:15.835Z,10.73
2022-11-28T12:54:42.249Z,10.73
2022-11-28T12:57:08.675Z,10.70
2022-11-28T12:59:35.104Z,10.72
2022-11-28T13:02:06.703Z,10.68
2022-11-28T13:04:35.946Z,10.72
2022-11-28T13:07:02.345Z,10.66
2022-11-28T13:09:28.766Z,10.64
2022-11-28T13:11:55.169Z,10.62
2022-11-28T13:14:21.580Z,10.65
2022-11-28T13:16:48.014Z,10.71
2022-11-28T13:19:14.531Z,10.73
2022-11-28T13:21:40.969Z,10.74
2022-11-28T13:24:07.711Z,10.71
2022-11-28T13:26:34.212Z,10.74
2022-11-28T13:29:00.605Z,10.81
2022-11-28T13:31:27.082Z,10.79
2022-11-28T13:33:53.550Z,10.79
2022-11-28T13:39:12.939Z,10.77
2022-11-28T13:42:28.335Z,10.76
2022-11-28T13:44:26.292Z,10.79
2022-11-28T13:46:52.779Z,10.67
2022-11-28T13:49:20.951Z,10.61
2022-11-28T13:51:47.812Z,10.61
2022-11-28T13:54:15.364Z,10.54
2022-11-28T13:56:41.855Z,10.48
2022-11-28T13:59:08.269Z,10.44
2022-11-28T14:01:34.817Z,10.38
2022-11-28T14:04:02.143Z,10.30
2022-11-28T14:06:28.740Z,10.25
2022-11-28T14:08:56.941Z,10.18
2022-11-28T14:11:27.684Z,10.14
2022-11-28T14:13:54.541Z,10.09
2022-11-28T14:16:21.024Z,10.05
2022-11-28T14:18:56.696Z,9.97
2022-11-28T14:21:24.484Z,9.97
2022-11-28T14:23:51.058Z,9.91
2022-11-28T14:26:17.475Z,9.87
2022-11-28T14:28:43.879Z,9.90
2022-11-28T14:31:10.348Z,9.88
2022-11-28T14:33:36.821Z,9.87
2022-11-28T14:36:03.218Z,9.94
2022-11-28T14:38:29.617Z,9.82
2022-11-28T14:40:56.032Z,9.78
2022-11-28T14:43:22.800Z,9.72
2022-11-28T14:45:49.409Z,9.69
2022-11-28T14:48:15.848Z,9.67
2022-11-28T14:50:42.318Z,9.68
2022-11-28T14:53:08.757Z,9.67
2022-11-28T14:55:35.150Z,9.65
2022-11-28T14:58:01.571Z,9.63
2022-11-28T15:00:27.978Z,9.67
2022-11-28T15:02:54.488Z,9.63
2022-11-28T15:05:20.984Z,9.60
2022-11-28T15:07:47.429Z,9.60
2022-11-28T15:10:13.863Z,9.57
2022-11-28T15:12:40.275Z,9.58
2022-11-28T15:15:06.682Z,9.60
2022-11-28T15:17:33.080Z,9.64
2022-11-28T15:19:59.558Z,9.60
2022-11-28T15:22:25.985Z,9.59
2022-11-28T15:24:52.368Z,9.53
2022-11-28T15:27:18.777Z,9.50
2022-11-28T15:29:45.186Z,9.46
2022-11-28T15:32:11.579Z,9.43
2022-11-28T15:34:37.998Z,9.38
2022-11-28T15:37:04.454Z,9.37
2022-11-28T15:39:30.883Z,9.36
2022-11-28T15:41:57.290Z,9.30
2022-11-28T15:44:23.791Z,9.28
2022-11-28T15:46:50.233Z,9.26
2022-11-28T15:49:16.657Z,9.26
2022-11-28T15:51:43.084Z,9.24
2022-11-28T15:54:14.638Z,9.21
2022-11-28T15:56:41.327Z,9.17
2022-11-28T15:59:07.752Z,9.14
2022-11-28T16:01:34.166Z,9.10
2022-11-28T16:04:00.668Z,9.11
2022-11-28T16:06:27.085Z,9.10
2022-11-28T16:08:53.529Z,9.06
2022-11-28T16:11:19.967Z,8.94
2022-11-28T16:13:46.568Z,8.92
2022-11-28T16:16:13.014Z,8.87
2022-11-28T16:18:39.448Z,8.84
2022-11-28T16:21:05.844Z,8.85
2022-11-28T16:23:32.257Z,8.84
2022-11-28T16:25:58.656Z,8.85
2022-11-28T16:28:25.089Z,8.81
2022-11-28T16:30:51.504Z,8.81
2022-11-28T16:33:21.682Z,8.84
2022-11-28T16:35:48.348Z,8.83
2022-11-28T16:38:14.746Z,8.77
2022-11-28T16:40:41.188Z,8.78
2022-11-28T16:43:07.617Z,8.78
2022-11-28T16:45:34.068Z,8.76
2022-11-28T16:48:00.511Z,8.74
2022-11-28T16:50:27.180Z,8.73
2022-11-28T16:52:53.577Z,8.69
2022-11-28T16:55:20.002Z,8.68
2022-11-28T16:57:46.433Z,8.66
2022-11-28T17:00:12.863Z,8.62
2022-11-28T17:02:39.285Z,8.58
2022-11-28T17:05:05.700Z,8.57
2022-11-28T17:07:32.194Z,8.63
2022-11-28T17:09:58.655Z,8.55
2022-11-28T17:12:25.073Z,8.53
2022-11-28T17:14:51.717Z,8.51
2022-11-28T17:17:18.140Z,8.49
2022-11-28T17:19:44.705Z,8.51
2022-11-28T17:22:11.236Z,8.48
2022-11-28T17:24:37.662Z,8.46
2022-11-28T17:27:04.064Z,8.44
2022-11-28T17:29:30.512Z,8.42
2022-11-28T17:31:57.041Z,8.39
2022-11-28T17:34:23.527Z,8.41
2022-11-28T17:36:49.957Z,8.37
2022-11-28T17:39:16.847Z,8.38
2022-11-28T17:41:43.436Z,8.34
2022-11-28T17:44:09.864Z,8.29
2022-11-28T17:46:36.301Z,8.28
2022-11-28T17:49:02.719Z,8.27
2022-11-28T17:51:29.216Z,8.24
2022-11-28T17:53:55.605Z,8.25
2022-11-28T17:56:21.994Z,8.27
2022-11-28T17:58:48.415Z,8.23
2022-11-28T18:01:14.855Z,8.22
2022-11-28T18:03:41.301Z,8.22
2022-11-28T18:06:07.739Z,8.19
2022-11-28T18:08:34.173Z,8.19
2022-11-28T18:11:00.589Z,8.19
2022-11-28T18:13:26.995Z,8.17
2022-11-28T18:15:53.397Z,8.14
2022-11-28T18:18:19.780Z,8.12
2022-11-28T18:20:46.200Z,8.12
2022-11-28T18:23:12.629Z,8.11
2022-11-28T18:25:39.028Z,8.11
2022-11-28T18:28:05.443Z,8.11
2022-11-28T18:30:31.870Z,8.10
2022-11-28T18:32:58.330Z,8.10
2022-11-28T18:35:24.753Z,8.09
2022-11-28T18:37:51.168Z,8.09
2022-11-28T18:40:17.581Z,8.07
2022-11-28T18:42:43.994Z,8.09
2022-11-28T18:45:10.412Z,8.10
2022-11-28T18:47:36.873Z,8.11
2022-11-28T18:50:03.303Z,8.13
2022-11-28T18:52:29.750Z,8.13
2022-11-28T18:54:56.157Z,8.16
2022-11-28T18:57:22.583Z,8.12
2022-11-28T18:59:54.702Z,8.10
2022-11-28T19:02:21.828Z,8.11
2022-11-28T19:04:48.289Z,8.10
2022-11-28T19:07:14.762Z,8.10
2022-11-28T19:09:41.378Z,8.08
2022-11-28T19:12:07.864Z,8.07
2022-11-28T19:14:34.901Z,8.07
2022-11-28T19:17:01.578Z,8.05
2022-11-28T19:19:28.595Z,8.05
2022-11-28T19:21:55.013Z,8.05
2022-11-28T19:24:21.459Z,8.04
2022-11-28T19:26:47.853Z,8.04
2022-11-28T19:29:14.271Z,8.04
2022-11-28T19:31:41.250Z,8.02
2022-11-28T19:34:07.817Z,8.01
2022-11-28T19:36:34.253Z,8.01
2022-11-28T19:39:00.664Z,8.01
2022-11-28T19:41:27.082Z,8.00
2022-11-28T19:43:53.505Z,8.00
2022-11-28T19:46:20.023Z,7.98
2022-11-28T19:48:46.497Z,7.98
2022-11-28T19:51:12.954Z,7.93
2022-11-28T19:53:39.351Z,7.94
2022-11-28T19:56:05.798Z,7.95
2022-11-28T19:58:32.205Z,7.94
2022-11-28T20:00:58.717Z,7.93
2022-11-28T20:03:25.235Z,7.94
2022-11-28T20:05:51.690Z,7.92
2022-11-28T20:08:18.107Z,7.93
2022-11-28T20:10:44.530Z,7.90
2022-11-28T20:13:10.942Z,7.89
2022-11-28T20:15:37.349Z,7.91
2022-11-28T20:18:03.737Z,7.87
2022-11-28T20:20:30.165Z,7.84
2022-11-28T20:22:56.570Z,7.86
2022-11-28T20:25:22.988Z,7.85
2022-11-28T20:27:49.398Z,7.83
2022-11-28T20:30:15.811Z,7.83
2022-11-28T20:32:42.227Z,7.81
2022-11-28T20:35:08.654Z,7.77
2022-11-28T20:37:35.074Z,7.74
2022-11-28T20:40:01.466Z,7.71
2022-11-28T20:42:27.874Z,7.72
2022-11-28T20:44:54.307Z,7.72
2022-11-28T20:47:20.734Z,7.71
2022-11-28T20:49:47.154Z,7.70
2022-11-28T20:52:13.577Z,7.67
2022-11-28T20:54:39.988Z,7.69
2022-11-28T20:57:20.960Z,7.66
2022-11-28T20:59:48.363Z,7.66
2022-11-28T21:02:14.813Z,7.66
2022-11-28T21:04:41.263Z,7.66
2022-11-28T21:07:07.679Z,7.66
2022-11-28T21:09:34.116Z,7.66
2022-11-28T21:12:00.527Z,7.64
2022-11-28T21:14:26.984Z,7.64
2022-11-28T21:16:53.477Z,7.67
2022-11-28T21:19:19.961Z,7.67
2022-11-28T21:21:46.392Z,7.68
2022-11-28T21:24:12.857Z,7.71
2022-11-28T21:26:42.437Z,7.70
2022-11-28T21:29:11.644Z,7.71
2022-11-28T21:31:38.105Z,7.70
2022-11-28T21:34:04.519Z,7.71
2022-11-28T21:36:30.922Z,7.72
2022-11-28T21:38:57.324Z,7.66
2022-11-28T21:41:23.731Z,7.64
2022-11-28T21:43:50.146Z,7.63
2022-11-28T21:46:16.614Z,7.64
2022-11-28T21:48:43.027Z,7.65
2022-11-28T21:51:09.437Z,7.66
2022-11-28T21:53:35.853Z,7.67
2022-11-28T21:56:02.287Z,7.73
2022-11-28T21:58:28.696Z,7.70
2022-11-28T22:00:55.093Z,7.70
2022-11-28T22:03:21.572Z,7.70
2022-11-28T22:05:48.022Z,7.72
2022-11-28T22:08:14.560Z,7.74
2022-11-28T22:10:41.027Z,7.75
2022-11-28T22:13:07.606Z,7.73
2022-11-28T22:15:34.061Z,7.72
2022-11-28T22:18:01.669Z,7.73
2022-11-28T22:20:29.243Z,7.64
2022-11-28T22:22:55.826Z,7.61
2022-11-28T22:25:22.300Z,7.60
2022-11-28T22:27:50.007Z,7.60
2022-11-28T22:30:16.595Z,7.60
2022-11-28T22:32:43.201Z,7.62
2022-11-28T22:35:09.874Z,7.62
2022-11-28T22:37:37.385Z,7.62
2022-11-28T22:40:03.957Z,7.64
2022-11-28T22:42:30.548Z,7.64
2022-11-28T22:44:58.155Z,7.66
2022-11-28T22:47:24.591Z,7.68
2022-11-28T22:49:51.045Z,7.69
2022-11-28T22:52:17.483Z,7.70
2022-11-28T22:54:44.202Z,7.70
2022-11-28T22:57:10.857Z,7.70
2022-11-28T22:59:37.245Z,7.71
2022-11-28T23:02:03.742Z,7.69
2022-11-28T23:04:30.226Z,7.70
2022-11-28T23:06:57.519Z,7.69
2022-11-28T23:09:25.245Z,7.66
2022-11-28T23:11:53.829Z,7.64
2022-11-28T23:14:20.262Z,7.61
2022-11-28T23:16:47.066Z,7.61
2022-11-28T23:19:14.627Z,7.61
2022-11-28T23:21:41.213Z,7.60
2022-11-28T23:24:08.232Z,7.64
2022-11-28T23:26:35.464Z,7.61
2022-11-28T23:29:03.000Z,7.59
2022-11-28T23:31:29.719Z,7.59
2022-11-28T23:33:57.216Z,7.61
2022-11-28T23:36:23.834Z,7.58
2022-11-28T23:38:50.430Z,7.57
2022-11-28T23:41:17.010Z,7.56
2022-11-28T23:43:45.619Z,7.56
2022-11-28T23:46:12.248Z,7.55
2022-11-28T23:48:39.786Z,7.55
2022-11-28T23:51:06.411Z,7.56
2022-11-28T23:53:32.812Z,7.56
2022-11-28T23:55:59.257Z,7.58
2022-11-28T23:58:25.727Z,7.57
